Time;durP1;ratioP1;P1;durP2;ratioP2;P2;SDS_P1;SDS_P2;PMS_P1;PMS_P2;Temp;Humidity;BMP_temperature;BMP_pressure;BME280_temperature;BME280_humidity;BME280_pressure;Samples;Min_cycle;Max_cycle;Signal;HPM_P1;HPM_P2
2021/03/22 00:00:17;;;;;;;28.52;5.32;;;4.90;92.60;;;;;;5051787;28;20033;-67
2021/03/22 00:02:43;;;;;;;26.10;5.15;;;4.90;92.60;;;;;;5050666;28;20147;-68
2021/03/22 00:05:09;;;;;;;22.55;5.45;;;4.90;92.80;;;;;;5052176;28;20096;-68
2021/03/22 00:07:34;;;;;;;16.02;4.07;;;4.80;92.90;;;;;;5051614;28;20081;-69
2021/03/22 00:10:00;;;;;;;32.65;15.93;;;4.80;92.90;;;;;;5051737;28;20025;-68
2021/03/22 00:12:25;;;;;;;31.40;5.47;;;4.80;93.10;;;;;;5052117;28;20032;-68
2021/03/22 00:14:51;;;;;;;22.38;4.57;;;4.70;93.20;;;;;;5051042;28;20120;-69
2021/03/22 00:17:17;;;;;;;27.60;4.15;;;4.70;93.30;;;;;;5052117;28;20461;-68
2021/03/22 00:19:42;;;;;;;14.38;4.18;;;4.70;93.30;;;;;;5051842;28;20036;-68
2021/03/22 00:22:08;;;;;;;19.25;4.22;;;4.70;93.40;;;;;;5050303;28;20063;-68
2021/03/22 00:24:33;;;;;;;22.73;5.15;;;4.70;93.50;;;;;;5051879;28;20052;-68
2021/03/22 00:26:59;;;;;;;27.40;5.90;;;4.70;93.60;;;;;;5051755;28;20029;-69
2021/03/22 00:29:24;;;;;;;23.75;5.68;;;4.70;93.60;;;;;;5051332;28;20031;-68
2021/03/22 00:31:50;;;;;;;23.05;5.50;;;4.70;93.60;;;;;;5051658;28;20083;-68
2021/03/22 00:34:15;;;;;;;15.07;4.32;;;4.80;93.60;;;;;;5055718;28;20048;-67
2021/03/22 00:36:41;;;;;;;19.58;5.05;;;4.80;93.70;;;;;;5054814;28;20086;-70
2021/03/22 00:39:06;;;;;;;32.92;5.47;;;4.70;93.80;;;;;;5055511;28;20079;-69
2021/03/22 00:41:32;;;;;;;20.13;4.97;;;4.70;94.00;;;;;;5055392;28;20032;-68
2021/03/22 00:43:57;;;;;;;22.67;5.55;;;4.70;94.00;;;;;;5054489;28;20025;-68
2021/03/22 00:46:23;;;;;;;21.60;4.57;;;4.70;94.00;;;;;;5055251;28;20029;-67
2021/03/22 00:48:49;;;;;;;19.00;4.93;;;4.70;94.00;;;;;;5055170;28;20021;-69
2021/03/22 00:51:14;;;;;;;24.77;5.65;;;4.60;94.00;;;;;;5054652;28;20021;-68
2021/03/22 00:53:40;;;;;;;23.15;5.05;;;4.60;94.00;;;;;;5055222;28;20025;-69
2021/03/22 00:56:06;;;;;;;20.30;4.65;;;4.60;94.10;;;;;;5053783;28;20017;-69
2021/03/22 00:58:31;;;;;;;19.23;5.80;;;4.60;94.20;;;;;;5053194;28;20044;-68
2021/03/22 01:01:00;;;;;;;19.05;4.15;;;4.50;94.20;;;;;;5054716;28;20358;-69
2021/03/22 01:03:30;;;;;;;23.88;5.00;;;4.50;94.40;;;;;;5054838;28;20021;-69
2021/03/22 01:05:57;;;;;;;23.20;5.88;;;4.50;94.40;;;;;;5054658;28;20029;-69
2021/03/22 01:08:27;;;;;;;19.48;4.75;;;4.50;94.50;;;;;;5055111;28;20487;-68
2021/03/22 01:10:59;;;;;;;22.15;5.22;;;4.40;94.60;;;;;;5053864;28;20032;-68
2021/03/22 01:13:32;;;;;;;23.20;5.78;;;4.40;94.60;;;;;;5055045;28;20025;-68
2021/03/22 01:15:59;;;;;;;17.38;4.78;;;4.40;94.70;;;;;;5054343;28;20130;-67
2021/03/22 01:18:29;;;;;;;25.25;5.68;;;4.40;94.70;;;;;;5052929;28;20033;-68
2021/03/22 01:21:00;;;;;;;18.95;4.57;;;4.40;94.80;;;;;;5054730;28;20025;-68
2021/03/22 01:23:26;;;;;;;22.17;5.70;;;4.40;94.90;;;;;;5054656;28;20380;-68
2021/03/22 01:25:52;;;;;;;24.17;7.15;;;4.30;95.00;;;;;;5053954;28;20021;-68
2021/03/22 01:28:18;;;;;;;16.33;6.85;;;4.30;95.10;;;;;;5054595;28;20025;-67
2021/03/22 01:30:50;;;;;;;24.38;5.55;;;4.30;95.10;;;;;;5053003;28;20074;-67
2021/03/22 01:33:19;;;;;;;25.00;6.25;;;4.30;95.10;;;;;;5053980;28;20409;-69
2021/03/22 01:35:45;;;;;;;33.35;6.53;;;4.30;95.20;;;;;;5054081;28;20013;-68
2021/03/22 01:38:10;;;;;;;18.63;4.88;;;4.30;95.20;;;;;;5053115;28;20028;-69
2021/03/22 01:40:52;;;;;;;19.90;4.53;;;4.30;95.20;;;;;;5052494;28;20067;-70
2021/03/22 01:43:47;;;;;;;19.65;6.25;;;4.20;95.30;;;;;;5052632;28;20025;-68
2021/03/22 01:46:17;;;;;;;18.40;5.28;;;4.20;95.30;;;;;;5022606;28;20106;-70
2021/03/22 01:48:42;;;;;;;22.35;7.00;;;4.30;95.40;;;;;;5052643;28;20095;-68
2021/03/22 01:51:09;;;;;;;20.35;5.35;;;4.30;95.40;;;;;;5054221;28;20078;-68
2021/03/22 01:53:35;;;;;;;24.50;5.50;;;4.30;95.40;;;;;;5052248;28;20036;-68
2021/03/22 01:56:28;;;;;;;19.95;5.40;;;4.20;95.40;;;;;;5052422;28;20031;-68
2021/03/22 01:58:54;;;;;;;16.88;5.07;;;4.30;95.40;;;;;;5052413;28;20439;-68
2021/03/22 02:01:23;;;;;;;28.10;7.30;;;4.20;95.40;;;;;;5053184;28;20032;-68
2021/03/22 02:03:49;;;;;;;18.70;5.60;;;4.20;95.40;;;;;;5053612;28;20017;-68
2021/03/22 02:06:15;;;;;;;26.30;5.78;;;4.10;95.40;;;;;;5053785;28;20025;-68
2021/03/22 02:08:43;;;;;;;17.02;5.20;;;4.10;95.60;;;;;;5052902;28;20079;-68
2021/03/22 02:11:23;;;;;;;16.55;4.78;;;4.10;95.60;;;;;;5053828;28;20025;-69
2021/03/22 02:13:51;;;;;;;30.75;11.25;;;4.20;95.60;;;;;;5051311;28;20021;-69
2021/03/22 02:16:27;;;;;;;21.83;6.07;;;4.20;95.50;;;;;;5052537;28;20044;-68
2021/03/22 02:18:55;;;;;;;23.48;7.20;;;4.10;95.60;;;;;;5053345;28;20032;-68
2021/03/22 02:21:58;;;;;;;21.80;5.80;;;4.20;95.60;;;;;;5053046;28;20029;-68
2021/03/22 02:25:11;;;;;;;20.38;6.10;;;4.10;95.60;;;;;;5053395;28;20082;-69
2021/03/22 02:27:58;;;;;;;18.73;5.22;;;4.20;95.60;;;;;;5040323;28;20060;-68
2021/03/22 02:30:31;;;;;;;21.92;5.13;;;4.20;95.80;;;;;;5053377;28;20108;-68
2021/03/22 02:33:40;;;;;;;20.17;5.55;;;4.20;95.90;;;;;;5053151;28;20025;-69
2021/03/22 02:36:15;;;;;;;18.45;5.00;;;4.30;95.90;;;;;;5024135;28;20037;-68
2021/03/22 02:38:48;;;;;;;18.05;5.80;;;4.40;95.90;;;;;;5053083;28;20021;-68
2021/03/22 02:41:21;;;;;;;15.18;5.40;;;4.40;95.80;;;;;;5052104;28;20040;-68
2021/03/22 02:44:06;;;;;;;23.55;8.30;;;4.50;95.70;;;;;;5052369;28;20025;-68
2021/03/22 02:46:33;;;;;;;20.00;8.07;;;4.60;95.70;;;;;;5053341;28;20025;-68
2021/03/22 02:49:01;;;;;;;21.52;6.10;;;4.70;95.70;;;;;;5052115;28;20022;-68
2021/03/22 02:51:57;;;;;;;24.77;6.47;;;4.70;95.60;;;;;;5051691;28;20017;-67
2021/03/22 02:55:01;;;;;;;23.35;6.97;;;4.80;95.50;;;;;;5052950;28;20043;-68
2021/03/22 02:57:42;;;;;;;21.10;6.30;;;4.90;95.30;;;;;;5052348;28;20028;-68
2021/03/22 03:00:15;;;;;;;21.37;6.50;;;4.90;95.30;;;;;;5052883;28;20036;-70
2021/03/22 03:02:43;;;;;;;21.48;6.25;;;5.00;95.30;;;;;;5052665;28;20763;-68
2021/03/22 03:05:10;;;;;;;29.85;9.05;;;5.00;95.20;;;;;;5052156;28;20021;-68
2021/03/22 03:07:36;;;;;;;27.10;7.90;;;5.00;95.20;;;;;;5052875;28;20029;-68
2021/03/22 03:10:03;;;;;;;28.73;7.65;;;5.10;95.20;;;;;;5052301;28;20092;-68
2021/03/22 03:12:29;;;;;;;17.35;8.95;;;5.20;95.10;;;;;;5051088;28;20024;-68
2021/03/22 03:14:56;;;;;;;31.40;7.40;;;5.20;95.00;;;;;;5050723;28;20124;-68
2021/03/22 03:17:23;;;;;;;28.15;9.05;;;5.30;95.00;;;;;;5051992;28;20025;-68
2021/03/22 03:19:53;;;;;;;30.27;8.23;;;5.30;94.90;;;;;;5051055;28;20056;-68
2021/03/22 03:22:21;;;;;;;17.65;7.10;;;5.40;94.90;;;;;;5052611;28;20033;-68
2021/03/22 03:24:46;;;;;;;29.50;9.80;;;5.40;94.80;;;;;;5051556;28;20021;-68
2021/03/22 03:27:14;;;;;;;27.15;8.68;;;5.40;94.80;;;;;;5052619;28;20037;-68
2021/03/22 03:29:41;;;;;;;19.77;7.43;;;5.40;94.80;;;;;;5052250;28;20480;-68
2021/03/22 03:32:10;;;;;;;25.42;7.93;;;5.50;94.80;;;;;;5051906;28;20047;-67
2021/03/22 03:34:36;;;;;;;26.52;8.25;;;5.60;94.70;;;;;;5053758;28;20021;-67
2021/03/22 03:37:02;;;;;;;25.85;10.60;;;5.60;94.60;;;;;;5053781;28;20029;-68
2021/03/22 03:39:28;;;;;;;20.83;7.65;;;5.70;94.50;;;;;;5051727;28;20127;-68
2021/03/22 03:41:53;;;;;;;30.05;9.48;;;5.70;94.50;;;;;;5051960;28;20097;-69
2021/03/22 03:44:19;;;;;;;24.65;8.88;;;5.70;94.40;;;;;;5052357;28;20024;-68
2021/03/22 03:46:45;;;;;;;34.03;9.70;;;5.70;94.30;;;;;;5051743;28;20045;-67
2021/03/22 03:49:10;;;;;;;26.60;8.38;;;5.70;94.30;;;;;;5052388;28;20079;-68
2021/03/22 03:51:38;;;;;;;24.27;8.23;;;5.80;94.30;;;;;;5052385;28;20021;-68
2021/03/22 03:54:05;;;;;;;31.83;8.93;;;5.80;94.20;;;;;;5051464;28;20434;-68
2021/03/22 03:56:31;;;;;;;28.15;8.57;;;5.80;94.20;;;;;;5052202;28;20108;-67
2021/03/22 03:58:57;;;;;;;19.73;8.88;;;5.80;94.20;;;;;;5052253;28;20041;-68
2021/03/22 04:01:24;;;;;;;25.17;9.18;;;5.80;94.20;;;;;;5051615;28;20104;-68
2021/03/22 04:03:50;;;;;;;25.10;8.30;;;5.80;94.20;;;;;;5052064;28;20048;-68
2021/03/22 04:06:20;;;;;;;29.42;8.43;;;5.90;94.20;;;;;;5052799;28;20057;-68
2021/03/22 04:08:52;;;;;;;27.60;8.48;;;5.90;94.10;;;;;;5056020;28;20369;-68
2021/03/22 04:11:32;;;;;;;32.35;9.23;;;5.80;94.20;;;;;;5056070;28;20392;-68
2021/03/22 04:13:58;;;;;;;27.40;8.57;;;5.80;94.20;;;;;;5054952;28;20048;-68
2021/03/22 04:16:27;;;;;;;25.15;8.38;;;5.90;94.20;;;;;;5055901;28;20485;-68
2021/03/22 04:18:53;;;;;;;24.80;8.10;;;5.90;94.20;;;;;;5055712;28;20484;-68
2021/03/22 04:21:24;;;;;;;26.60;8.98;;;5.90;94.20;;;;;;5053994;28;20029;-68
2021/03/22 04:23:50;;;;;;;34.90;9.03;;;5.90;94.20;;;;;;5055623;28;20112;-67
2021/03/22 04:26:16;;;;;;;31.48;9.20;;;5.90;94.20;;;;;;5055818;28;20021;-67
2021/03/22 04:28:43;;;;;;;30.95;8.98;;;5.90;94.20;;;;;;5053455;28;20063;-67
2021/03/22 04:31:11;;;;;;;28.98;9.23;;;6.00;94.20;;;;;;5055745;28;20392;-68
2021/03/22 04:33:37;;;;;;;23.30;9.18;;;6.00;94.10;;;;;;5055597;28;20390;-68
2021/03/22 04:36:03;;;;;;;31.85;8.80;;;6.00;94.00;;;;;;5054580;28;20029;-69
2021/03/22 04:38:29;;;;;;;30.23;8.98;;;6.00;94.00;;;;;;5055552;28;20100;-68
2021/03/22 04:40:54;;;;;;;27.67;9.95;;;6.00;94.10;;;;;;5055046;28;20029;-68
2021/03/22 04:43:20;;;;;;;31.60;9.00;;;6.00;94.10;;;;;;5054814;28;20112;-67
2021/03/22 04:45:45;;;;;;;27.25;9.32;;;6.00;94.10;;;;;;5055052;28;20496;-68
2021/03/22 04:48:12;;;;;;;23.48;8.45;;;6.00;94.10;;;;;;5054245;28;20500;-69
2021/03/22 04:50:38;;;;;;;25.33;9.40;;;6.00;94.10;;;;;;5054693;28;20021;-69
2021/03/22 04:53:05;;;;;;;33.53;10.65;;;6.00;94.10;;;;;;5055005;28;20028;-68
2021/03/22 04:55:31;;;;;;;28.70;9.88;;;6.00;94.10;;;;;;5053816;28;20031;-68
2021/03/22 04:57:56;;;;;;;32.45;9.98;;;6.00;94.10;;;;;;5054991;28;20029;-68
2021/03/22 05:00:22;;;;;;;33.55;10.63;;;6.00;94.10;;;;;;5055257;28;20040;-68
2021/03/22 05:02:48;;;;;;;30.38;9.95;;;6.10;94.10;;;;;;5054305;28;20036;-68
2021/03/22 05:05:13;;;;;;;29.45;9.68;;;6.10;94.10;;;;;;5054977;28;20021;-68
2021/03/22 05:07:39;;;;;;;34.17;10.18;;;6.20;94.10;;;;;;5054142;28;20112;-68
2021/03/22 05:10:08;;;;;;;26.80;9.85;;;6.20;94.10;;;;;;5054333;28;20048;-69
2021/03/22 05:12:33;;;;;;;25.92;9.48;;;6.20;94.10;;;;;;5055779;28;20439;-69
2021/03/22 05:14:59;;;;;;;30.42;8.85;;;6.10;94.20;;;;;;5054805;28;20917;-68
2021/03/22 05:17:24;;;;;;;25.63;9.07;;;6.10;94.20;;;;;;5054111;28;20036;-68
2021/03/22 05:19:50;;;;;;;29.13;9.18;;;6.20;94.30;;;;;;5053952;28;20350;-68
2021/03/22 05:22:16;;;;;;;29.70;8.80;;;6.20;94.30;;;;;;5054685;28;20111;-68
2021/03/22 05:24:41;;;;;;;19.73;8.45;;;6.20;94.30;;;;;;5053841;28;20544;-66
2021/03/22 05:27:08;;;;;;;23.33;8.40;;;6.20;94.30;;;;;;5054691;28;20056;-67
2021/03/22 05:29:33;;;;;;;25.27;9.00;;;6.20;94.40;;;;;;5054630;28;20021;-67
2021/03/22 05:31:59;;;;;;;19.50;7.90;;;6.20;94.40;;;;;;5053667;28;20047;-67
2021/03/22 05:34:24;;;;;;;18.17;7.97;;;6.10;94.40;;;;;;5053266;28;20025;-68
2021/03/22 05:36:51;;;;;;;23.40;7.43;;;6.10;94.50;;;;;;5035934;28;20100;-67
2021/03/22 05:39:18;;;;;;;21.63;6.65;;;6.10;94.50;;;;;;5033856;28;20021;-67
2021/03/22 05:42:01;;;;;;;20.80;7.45;;;6.00;94.50;;;;;;5032544;28;20037;-68
2021/03/22 05:44:37;;;;;;;22.17;7.10;;;6.00;94.60;;;;;;5033066;28;20378;-68
2021/03/22 05:47:20;;;;;;;24.20;8.65;;;6.00;94.60;;;;;;5032219;28;20026;-68
2021/03/22 05:50:29;;;;;;;13.02;6.53;;;6.00;94.90;;;;;;5030614;28;20386;-67
2021/03/22 05:53:07;;;;;;;20.13;8.90;;;6.00;94.60;;;;;;4989812;28;20073;-68
2021/03/22 05:55:52;;;;;;;19.52;5.88;;;6.00;94.70;;;;;;4975176;28;20110;-67
2021/03/22 05:58:39;;;;;;;561.53;54.42;;;6.00;94.70;;;;;;5025337;28;20056;-68
2021/03/22 06:01:33;;;;;;;22.02;5.15;;;6.10;94.80;;;;;;5040480;28;20038;-68
2021/03/22 06:04:11;;;;;;;14.82;4.70;;;6.10;94.90;;;;;;5013947;28;20026;-69
2021/03/22 06:06:47;;;;;;;22.75;5.88;;;6.10;94.80;;;;;;5014831;28;20452;-69
2021/03/22 06:09:25;;;;;;;13.55;5.03;;;6.20;94.90;;;;;;5014324;28;20037;-68
2021/03/22 06:11:58;;;;;;;34.65;6.50;;;6.20;94.80;;;;;;5013905;28;20481;-69
2021/03/22 06:14:52;;;;;;;121.00;11.20;;;6.20;94.90;;;;;;5026757;28;20128;-68
2021/03/22 06:17:22;;;;;;;16.63;6.43;;;6.30;94.90;;;;;;5017354;28;20034;-68
2021/03/22 06:19:53;;;;;;;18.35;5.68;;;6.30;94.90;;;;;;5013233;28;20104;-68
2021/03/22 06:22:26;;;;;;;22.30;5.90;;;6.40;94.80;;;;;;5024393;28;20030;-67
2021/03/22 06:24:53;;;;;;;15.77;4.80;;;6.50;94.80;;;;;;5032115;28;20477;-71
2021/03/22 06:27:19;;;;;;;19.05;5.70;;;6.60;94.70;;;;;;5031763;28;20025;-69
2021/03/22 06:29:45;;;;;;;41.90;6.93;;;6.70;94.60;;;;;;5019872;28;20040;-68
2021/03/22 06:32:20;;;;;;;14.55;4.30;;;6.80;94.50;;;;;;5013480;28;20093;-71
2021/03/22 06:34:57;;;;;;;13.88;5.15;;;6.80;94.40;;;;;;5012772;28;20021;-70
2021/03/22 06:37:26;;;;;;;11.45;4.63;;;6.80;94.40;;;;;;5012464;28;20751;-70
2021/03/22 06:40:24;;;;;;;16.90;4.35;;;6.90;94.30;;;;;;5014160;28;20128;-69
2021/03/22 06:43:07;;;;;;;102.57;11.65;;;7.00;94.20;;;;;;5005097;28;20085;-68
2021/03/22 06:45:34;;;;;;;13.38;5.07;;;7.00;94.10;;;;;;5015437;28;20030;-69
2021/03/22 06:48:20;;;;;;;10.35;4.18;;;7.10;94.00;;;;;;5030492;28;20040;-71
2021/03/22 06:50:48;;;;;;;49.25;5.72;;;7.10;93.90;;;;;;5024092;28;20106;-71
2021/03/22 06:53:34;;;;;;;180.05;16.52;;;7.10;93.70;;;;;;5052949;28;20105;-71
2021/03/22 06:56:14;;;;;;;12.40;3.60;;;7.20;93.90;;;;;;5051991;28;20025;-72
2021/03/22 06:58:40;;;;;;;14.65;3.88;;;7.10;93.80;;;;;;5053039;28;20500;-71
2021/03/22 07:01:25;;;;;;;12.23;3.60;;;7.30;93.70;;;;;;5051270;28;20033;-70
2021/03/22 07:03:51;;;;;;;15.38;4.47;;;7.40;93.60;;;;;;5026228;28;20057;-71
2021/03/22 07:06:24;;;;;;;16.17;3.92;;;7.50;93.40;;;;;;5024962;28;20397;-70
2021/03/22 07:08:51;;;;;;;12.25;3.40;;;7.50;93.20;;;;;;5032595;28;20018;-69
2021/03/22 07:11:22;;;;;;;12.93;3.85;;;7.60;93.20;;;;;;5032201;28;20036;-70
2021/03/22 07:13:57;;;;;;;13.80;3.72;;;7.70;93.10;;;;;;5032512;28;20482;-69
2021/03/22 07:16:26;;;;;;;12.20;3.60;;;7.70;92.90;;;;;;5026660;28;20137;-69
2021/03/22 07:19:19;;;;;;;17.38;4.07;;;7.70;92.70;;;;;;5027641;28;20091;-67
2021/03/22 07:21:55;;;;;;;13.82;3.45;;;7.70;92.60;;;;;;5032390;28;20048;-68
2021/03/22 16:58:15;;;;;;;3.00;1.70;;;9.50;69.80;;;;;;5055267;23;20062;-65
2021/03/22 17:00:50;;;;;;;3.05;1.60;;;9.40;71.10;;;;;;5010904;28;20022;-65
2021/03/22 17:03:15;;;;;;;1.95;1.48;;;9.40;72.00;;;;;;5000120;28;20038;-64
2021/03/22 17:05:43;;;;;;;4.35;1.48;;;9.40;72.30;;;;;;5009958;28;20026;-65
2021/03/22 17:08:10;;;;;;;1.95;1.33;;;9.40;72.70;;;;;;5005330;28;20031;-64
2021/03/22 17:10:38;;;;;;;4.25;1.83;;;9.40;72.40;;;;;;4992394;28;20066;-66
2021/03/22 17:13:04;;;;;;;3.00;1.75;;;9.40;72.60;;;;;;4989549;28;20023;-65
2021/03/22 17:15:30;;;;;;;2.80;1.90;;;9.40;73.00;;;;;;4991283;28;20038;-64
2021/03/22 17:17:56;;;;;;;2.60;1.70;;;9.40;73.00;;;;;;4991512;28;20022;-65
2021/03/22 17:20:24;;;;;;;1.42;1.33;;;9.40;72.60;;;;;;4989958;28;20026;-65
2021/03/22 17:22:49;;;;;;;2.17;1.55;;;9.40;73.60;;;;;;4990961;28;20141;-66
2021/03/22 17:25:29;;;;;;;2.85;1.92;;;9.30;73.50;;;;;;4990353;28;20384;-64
2021/03/22 17:27:56;;;;;;;3.60;2.15;;;9.30;73.70;;;;;;4990648;28;20445;-67
2021/03/22 17:30:25;;;;;;;2.78;1.50;;;9.30;73.60;;;;;;4991294;28;20401;-63
2021/03/22 17:32:51;;;;;;;4.53;1.63;;;9.30;74.00;;;;;;4990948;28;20045;-64
2021/03/22 17:35:18;;;;;;;2.50;1.60;;;9.40;74.00;;;;;;4989645;28;20023;-64
2021/03/22 17:37:46;;;;;;;2.88;1.60;;;9.40;74.30;;;;;;4990898;28;20092;-64
2021/03/22 17:40:13;;;;;;;2.67;1.60;;;9.40;73.90;;;;;;4990753;28;20026;-65
2021/03/22 17:42:38;;;;;;;4.32;1.92;;;9.40;74.60;;;;;;4990128;28;20406;-66
2021/03/22 17:45:05;;;;;;;4.65;1.83;;;9.50;74.70;;;;;;4990024;28;20029;-66
2021/03/22 17:47:31;;;;;;;3.75;2.00;;;9.40;74.30;;;;;;4989112;28;20437;-67
2021/03/22 17:49:57;;;;;;;4.43;2.10;;;9.40;74.70;;;;;;5006447;28;20026;-63
2021/03/22 17:52:22;;;;;;;2.63;1.48;;;9.50;74.90;;;;;;5003519;28;20029;-65
2021/03/22 17:54:48;;;;;;;2.17;1.50;;;9.40;75.60;;;;;;5010248;28;20496;-66
2021/03/22 17:57:14;;;;;;;2.60;1.88;;;9.30;75.10;;;;;;5025713;28;20056;-65
2021/03/22 17:59:39;;;;;;;2.88;1.65;;;9.20;75.40;;;;;;5010645;28;20906;-64
2021/03/22 18:02:05;;;;;;;7.07;2.13;;;9.20;75.80;;;;;;5008816;28;20041;-66
2021/03/22 18:04:31;;;;;;;3.25;1.70;;;9.20;77.10;;;;;;5005442;28;20018;-65
2021/03/22 18:06:56;;;;;;;3.25;1.60;;;9.30;78.30;;;;;;4989740;28;20030;-65
2021/03/22 18:09:22;;;;;;;9.18;2.10;;;9.40;77.10;;;;;;4990050;28;20022;-66
2021/03/22 18:11:48;;;;;;;6.93;2.45;;;9.30;76.40;;;;;;4990869;28;20393;-65
2021/03/22 18:14:14;;;;;;;4.45;2.35;;;9.20;76.80;;;;;;4990115;28;20500;-64
2021/03/22 18:16:40;;;;;;;2.83;2.33;;;9.20;77.10;;;;;;4989950;28;20029;-64
2021/03/22 18:19:05;;;;;;;4.93;2.60;;;9.30;77.30;;;;;;4990249;28;20026;-66
2021/03/22 18:21:31;;;;;;;6.07;3.20;;;9.20;77.40;;;;;;4990106;28;20039;-65
2021/03/22 18:23:57;;;;;;;5.85;3.03;;;9.20;78.00;;;;;;4990512;28;20138;-65
2021/03/22 18:26:22;;;;;;;3.58;2.72;;;9.10;78.30;;;;;;4990063;28;20056;-65
2021/03/22 18:28:48;;;;;;;4.55;3.03;;;9.10;78.30;;;;;;4989208;28;20038;-64
2021/03/22 18:31:15;;;;;;;4.63;3.42;;;9.20;78.40;;;;;;4990301;28;20073;-63
2021/03/22 18:33:41;;;;;;;6.03;3.75;;;9.10;78.60;;;;;;4990284;28;20089;-66
2021/03/22 18:36:07;;;;;;;6.15;3.53;;;9.10;78.70;;;;;;4990178;28;20470;-64
2021/03/22 18:38:33;;;;;;;5.30;3.70;;;9.10;78.80;;;;;;4989775;28;20391;-65
2021/03/22 18:40:59;;;;;;;7.82;3.67;;;9.10;78.80;;;;;;4989829;28;20862;-64
2021/03/22 18:43:28;;;;;;;9.77;4.47;;;9.10;79.10;;;;;;4989285;28;20089;-64
2021/03/22 18:45:55;;;;;;;6.50;3.80;;;9.00;79.70;;;;;;4989901;28;20654;-64
2021/03/22 18:48:22;;;;;;;7.15;3.92;;;9.00;79.50;;;;;;4988506;28;20057;-66
2021/03/22 18:50:48;;;;;;;5.78;3.60;;;9.00;79.60;;;;;;4989005;28;20022;-64
2021/03/22 18:53:14;;;;;;;6.97;4.38;;;9.00;79.70;;;;;;4997876;28;20438;-64
2021/03/22 18:55:39;;;;;;;5.63;4.25;;;9.00;80.20;;;;;;4987921;28;20026;-65
2021/03/22 18:58:06;;;;;;;6.55;4.47;;;9.00;80.10;;;;;;4988826;28;20059;-66
2021/03/22 19:00:37;;;;;;;4.93;4.20;;;9.00;80.00;;;;;;5004738;28;20072;-65
2021/03/22 19:03:03;;;;;;;6.18;4.28;;;9.00;80.10;;;;;;4988334;28;20397;-65
2021/03/22 19:05:28;;;;;;;5.38;4.10;;;9.10;80.20;;;;;;4988299;28;20027;-66
2021/03/22 19:07:54;;;;;;;4.20;3.75;;;9.10;80.20;;;;;;4989923;28;20034;-64
2021/03/22 19:10:25;;;;;;;9.35;4.35;;;9.10;80.00;;;;;;4989668;28;20026;-65
2021/03/22 19:12:52;;;;;;;5.57;4.10;;;9.00;80.00;;;;;;4989840;28;20118;-65
2021/03/22 19:15:20;;;;;;;5.13;3.65;;;9.00;80.60;;;;;;4987439;28;20592;-65
2021/03/22 19:17:47;;;;;;;6.68;4.00;;;8.90;80.40;;;;;;5003609;28;20037;-65
2021/03/22 19:20:13;;;;;;;5.22;4.03;;;8.90;80.10;;;;;;4988138;28;20061;-65
2021/03/22 19:22:38;;;;;;;5.50;3.90;;;8.90;80.30;;;;;;4986866;28;20494;-65
2021/03/22 19:25:06;;;;;;;6.30;4.15;;;8.90;80.50;;;;;;4988063;28;20101;-65
2021/03/22 19:27:34;;;;;;;6.45;3.70;;;8.90;80.30;;;;;;4988120;28;20030;-66
2021/03/22 19:30:01;;;;;;;7.15;3.75;;;8.90;80.20;;;;;;4970287;28;20096;-65
2021/03/22 19:32:27;;;;;;;6.43;3.85;;;8.90;80.20;;;;;;4982016;28;20026;-65
2021/03/22 19:34:53;;;;;;;4.88;3.45;;;8.90;80.70;;;;;;4987165;28;20050;-65
2021/03/22 19:37:18;;;;;;;5.45;3.63;;;9.00;81.00;;;;;;4987747;28;20356;-65
2021/03/22 19:39:44;;;;;;;4.85;3.60;;;9.00;81.00;;;;;;4988541;28;20382;-66
2021/03/22 19:42:10;;;;;;;8.98;4.05;;;9.00;80.90;;;;;;4988745;28;20509;-66
2021/03/22 19:44:35;;;;;;;3.97;3.38;;;9.00;81.00;;;;;;5004530;28;20038;-66
2021/03/22 19:47:01;;;;;;;3.78;3.28;;;9.00;81.00;;;;;;4988814;28;20477;-66
2021/03/22 19:49:28;;;;;;;6.35;3.25;;;9.00;81.00;;;;;;4987816;28;20089;-66
2021/03/22 19:51:53;;;;;;;5.25;3.15;;;9.00;80.80;;;;;;4998251;28;20034;-67
2021/03/22 19:54:19;;;;;;;5.47;3.35;;;9.00;80.80;;;;;;5008218;28;20037;-66
2021/03/22 19:56:45;;;;;;;4.28;2.97;;;8.90;81.00;;;;;;4994074;28;20143;-66
2021/03/22 19:59:11;;;;;;;4.40;2.92;;;8.90;81.10;;;;;;4987463;28;20042;-67
2021/03/22 20:01:36;;;;;;;3.75;3.00;;;8.90;81.00;;;;;;4987741;28;20411;-67
2021/03/22 20:04:02;;;;;;;4.82;3.33;;;8.90;81.00;;;;;;4989171;28;20018;-67
2021/03/22 20:06:28;;;;;;;5.78;3.20;;;8.80;81.10;;;;;;4989131;28;20073;-68
2021/03/22 20:08:54;;;;;;;4.60;2.95;;;8.80;81.10;;;;;;4988935;28;20454;-67
2021/03/22 20:11:19;;;;;;;4.57;3.00;;;8.80;81.20;;;;;;4987493;28;20034;-66
2021/03/22 20:13:46;;;;;;;3.97;3.30;;;8.70;81.30;;;;;;4988748;28;20628;-68
2021/03/22 20:16:14;;;;;;;7.18;3.13;;;8.70;81.50;;;;;;4988725;28;20081;-66
2021/03/22 20:18:40;;;;;;;5.82;3.70;;;8.60;81.50;;;;;;4988839;28;20042;-66
2021/03/22 20:21:18;;;;;;;5.00;3.75;;;8.60;81.50;;;;;;4988949;28;20032;-67
2021/03/22 20:23:46;;;;;;;5.07;4.28;;;8.50;81.90;;;;;;4989015;28;20069;-66
2021/03/22 20:26:13;;;;;;;7.50;4.25;;;8.50;82.20;;;;;;4988917;28;20037;-66
2021/03/22 20:28:39;;;;;;;8.00;4.70;;;8.40;82.40;;;;;;4988344;28;20035;-67
2021/03/22 20:31:10;;;;;;;8.88;5.15;;;8.30;82.40;;;;;;4989173;28;20073;-67
2021/03/22 20:33:37;;;;;;;9.15;5.03;;;8.30;82.90;;;;;;4988628;28;20110;-68
2021/03/22 20:36:07;;;;;;;10.30;5.38;;;8.30;83.20;;;;;;4987269;28;20050;-67
2021/03/22 20:38:34;;;;;;;5.68;4.75;;;8.30;83.20;;;;;;4988380;28;20034;-66
2021/03/22 20:41:02;;;;;;;8.93;4.93;;;8.30;83.30;;;;;;4988623;28;20118;-63
2021/03/22 20:43:28;;;;;;;6.32;4.50;;;8.30;83.60;;;;;;4988289;28;20034;-63
2021/03/22 20:45:54;;;;;;;8.38;4.95;;;8.20;84.30;;;;;;4990262;28;20106;-65
2021/03/22 20:48:22;;;;;;;10.27;5.68;;;8.20;83.60;;;;;;4992313;28;20105;-64
2021/03/22 20:50:47;;;;;;;7.80;6.05;;;8.20;83.60;;;;;;4994624;28;20022;-68
2021/03/22 20:53:14;;;;;;;8.13;5.78;;;8.20;83.70;;;;;;4995570;28;20028;-64
2021/03/22 20:55:39;;;;;;;8.57;5.63;;;8.10;83.80;;;;;;4994688;28;20478;-64
2021/03/22 20:58:05;;;;;;;9.23;5.80;;;8.10;84.10;;;;;;4993956;28;20046;-65
2021/03/22 21:00:34;;;;;;;10.38;6.13;;;8.10;84.30;;;;;;5010467;28;20121;-64
2021/03/22 21:03:00;;;;;;;6.65;5.70;;;8.00;84.50;;;;;;4994951;28;20034;-66
2021/03/22 21:05:28;;;;;;;8.07;6.63;;;8.00;84.80;;;;;;4995389;28;20153;-63
2021/03/22 21:07:53;;;;;;;8.32;6.80;;;7.90;85.10;;;;;;4995618;28;20088;-65
2021/03/22 21:10:22;;;;;;;8.50;6.85;;;7.90;85.10;;;;;;4994543;28;20133;-65
2021/03/22 21:12:48;;;;;;;8.80;7.68;;;7.90;85.30;;;;;;4994313;28;20106;-65
2021/03/22 21:15:14;;;;;;;8.60;7.30;;;7.80;85.40;;;;;;4995330;28;20030;-65
2021/03/22 21:17:40;;;;;;;8.77;7.53;;;7.80;85.60;;;;;;4994681;28;20034;-66
2021/03/22 21:20:10;;;;;;;10.57;6.90;;;7.80;85.90;;;;;;5009983;28;20452;-66
2021/03/22 21:22:35;;;;;;;9.77;6.78;;;7.80;85.90;;;;;;4995137;28;20504;-66
2021/03/22 21:25:02;;;;;;;10.13;6.65;;;7.80;85.80;;;;;;4994831;28;20097;-64
2021/03/22 21:27:28;;;;;;;7.32;6.35;;;7.80;86.00;;;;;;4995369;28;20069;-65
2021/03/22 21:29:53;;;;;;;11.30;6.68;;;7.80;85.90;;;;;;4994100;28;20058;-65
2021/03/22 21:32:19;;;;;;;10.75;6.82;;;7.90;85.80;;;;;;4994523;28;20023;-64
2021/03/22 21:34:44;;;;;;;8.43;7.07;;;7.90;85.60;;;;;;4994106;28;20022;-65
2021/03/22 21:37:10;;;;;;;10.02;7.10;;;8.00;85.60;;;;;;5010315;28;20117;-66
2021/03/22 21:39:36;;;;;;;8.93;6.38;;;7.90;85.30;;;;;;4993486;28;20478;-65
2021/03/22 21:42:02;;;;;;;8.65;6.88;;;8.00;85.50;;;;;;4994786;28;20034;-66
2021/03/22 21:44:29;;;;;;;10.40;7.35;;;8.00;85.60;;;;;;4993061;28;20129;-66
2021/03/22 21:46:55;;;;;;;11.27;7.45;;;8.00;86.20;;;;;;4994330;28;20018;-65
2021/03/22 21:49:21;;;;;;;8.27;7.38;;;8.00;85.70;;;;;;4993892;28;20117;-66
2021/03/22 21:51:47;;;;;;;8.80;7.40;;;8.00;85.70;;;;;;4994160;28;20114;-65
2021/03/22 21:54:12;;;;;;;10.50;8.15;;;8.00;85.80;;;;;;5009102;28;20030;-65
2021/03/22 21:56:38;;;;;;;11.38;8.88;;;8.10;86.00;;;;;;5009077;28;20501;-66
2021/03/22 21:59:04;;;;;;;11.25;8.63;;;8.00;85.90;;;;;;4994253;28;20403;-65
2021/03/22 22:01:29;;;;;;;10.43;9.32;;;8.10;85.80;;;;;;4992323;28;20046;-65
2021/03/22 22:03:55;;;;;;;10.93;9.40;;;8.00;85.70;;;;;;4993275;28;20061;-66
2021/03/22 22:06:21;;;;;;;10.65;9.38;;;8.10;85.80;;;;;;4993111;28;20034;-66
2021/03/22 22:08:46;;;;;;;13.15;10.45;;;8.10;86.20;;;;;;4994638;28;20019;-65
2021/03/22 22:11:13;;;;;;;12.85;10.32;;;8.10;86.30;;;;;;4994523;28;20040;-65
2021/03/22 22:13:39;;;;;;;11.43;10.20;;;8.10;86.20;;;;;;4993870;28;20166;-65
2021/03/22 22:16:05;;;;;;;16.63;11.57;;;8.10;86.30;;;;;;4994478;28;20169;-65
2021/03/22 22:18:31;;;;;;;14.48;10.57;;;8.10;86.30;;;;;;4994260;28;20053;-65
2021/03/22 22:20:57;;;;;;;12.00;10.52;;;8.10;86.30;;;;;;4993926;28;20463;-65
2021/03/22 22:23:22;;;;;;;11.82;9.60;;;8.10;86.40;;;;;;4994109;28;20031;-65
2021/03/22 22:25:48;;;;;;;11.50;9.93;;;8.10;86.30;;;;;;4994556;28;20206;-65
2021/03/22 22:28:15;;;;;;;13.60;9.70;;;8.10;85.80;;;;;;4993522;28;20053;-65
2021/03/22 22:30:40;;;;;;;10.80;9.43;;;8.10;85.70;;;;;;4994069;28;20041;-66
2021/03/22 22:33:08;;;;;;;10.90;8.98;;;8.10;85.50;;;;;;4994342;28;20034;-65